createdAt,value
2018-06-25T00:02:40.779Z,7.13
2018-06-25T00:07:33.743Z,7.37
2018-06-25T00:12:26.741Z,7.30
2018-06-25T00:17:19.783Z,7.60
2018-06-25T00:22:12.751Z,7.33
2018-06-25T00:27:05.773Z,7.80
2018-06-25T00:31:58.772Z,7.70
2018-06-25T00:36:51.737Z,7.47
2018-06-25T00:41:44.832Z,7.67
2018-06-25T00:46:37.815Z,8.23
2018-06-25T00:51:30.869Z,8.63
2018-06-25T00:56:23.906Z,9.30
2018-06-25T01:01:16.867Z,9.33
2018-06-25T01:06:09.950Z,9.80
2018-06-25T01:11:03.019Z,10.60
2018-06-25T01:15:55.979Z,10.97
2018-06-25T01:20:49.052Z,11.37
2018-06-25T01:25:42.074Z,11.47
2018-06-25T01:30:35.026Z,11.07
2018-06-25T01:35:28.055Z,11.87
2018-06-25T01:40:21.019Z,11.87
2018-06-25T01:45:13.966Z,11.70
2018-06-25T01:50:06.985Z,12.13
2018-06-25T01:54:59.990Z,12.40
2018-06-25T01:59:52.909Z,11.90
2018-06-25T02:04:45.970Z,11.77
2018-06-25T02:09:39.007Z,12.10
2018-06-25T02:14:32.040Z,11.77
2018-06-25T02:19:25.104Z,11.27
2018-06-25T02:24:18.130Z,11.63
2018-06-25T02:29:11.171Z,11.70
2018-06-25T02:34:04.927Z,11.93
2018-06-25T02:38:57.964Z,11.60
2018-06-25T02:43:50.891Z,11.37
2018-06-25T02:48:43.836Z,12.37
2018-06-25T02:53:36.831Z,11.70
2018-06-25T02:58:29.811Z,10.90
2018-06-25T03:03:22.716Z,12.13
2018-06-25T03:08:15.706Z,12.03
2018-06-25T03:13:08.784Z,11.53
2018-06-25T03:18:01.929Z,11.40
2018-06-25T03:22:54.954Z,10.53
2018-06-25T03:27:48.100Z,12.10
2018-06-25T03:32:41.100Z,11.77
2018-06-25T03:37:34.119Z,11.97
2018-06-25T03:42:27.394Z,11.60
2018-06-25T03:47:20.527Z,11.50
2018-06-25T03:52:13.451Z,11.30
2018-06-25T03:57:06.500Z,15.27
2018-06-25T04:01:59.638Z,14.03
2018-06-25T04:06:52.639Z,14.03
2018-06-25T04:11:45.679Z,13.27
2018-06-25T04:16:38.781Z,12.73
2018-06-25T04:21:32.848Z,12.33
2018-06-25T04:26:25.824Z,13.03
2018-06-25T04:31:18.895Z,11.93
2018-06-25T04:36:11.904Z,12.33
2018-06-25T04:41:05.044Z,11.80
2018-06-25T04:45:58.076Z,12.77
2018-06-25T04:50:51.213Z,13.23
2018-06-25T04:55:44.208Z,12.93
2018-06-25T05:00:37.358Z,12.23
2018-06-25T05:05:30.385Z,12.13
2018-06-25T05:10:23.378Z,12.57
2018-06-25T05:15:16.418Z,11.03
2018-06-25T05:20:09.524Z,11.20
2018-06-25T05:25:02.569Z,11.77
2018-06-25T05:29:55.754Z,11.90
2018-06-25T05:34:48.870Z,12.57
2018-06-25T05:39:41.995Z,12.70
2018-06-25T05:44:35.005Z,11.97
2018-06-25T05:49:27.992Z,11.70
2018-06-25T05:54:21.155Z,11.33
2018-06-25T05:59:14.110Z,10.47
2018-06-25T06:04:07.170Z,11.27
2018-06-25T06:09:00.362Z,11.00
2018-06-25T06:13:53.379Z,10.60
2018-06-25T06:18:46.589Z,14.43
2018-06-25T06:23:39.642Z,13.93
2018-06-25T06:28:32.643Z,12.20
2018-06-25T06:33:25.701Z,12.27
2018-06-25T06:38:18.708Z,12.33
2018-06-25T06:43:11.683Z,13.33
2018-06-25T06:48:04.937Z,16.00
2018-06-25T06:52:57.899Z,14.53
2018-06-25T06:57:50.997Z,14.27
2018-06-25T07:02:43.924Z,13.90
2018-06-25T07:07:36.893Z,14.03
2018-06-25T07:12:29.928Z,14.53
2018-06-25T07:17:23.111Z,14.47
2018-06-25T07:22:16.153Z,14.40
2018-06-25T07:27:09.321Z,14.60
2018-06-25T07:32:02.351Z,15.50
2018-06-25T07:36:55.391Z,16.10
2018-06-25T07:41:48.574Z,15.67
2018-06-25T07:46:41.757Z,15.07
2018-06-25T07:51:34.913Z,15.60
2018-06-25T07:56:28.032Z,15.67
2018-06-25T08:01:21.257Z,17.67
2018-06-25T08:06:14.359Z,14.90
2018-06-25T08:11:07.438Z,12.00
2018-06-25T08:16:00.603Z,10.83
2018-06-25T08:20:53.780Z,11.57
2018-06-25T08:25:46.754Z,12.33
2018-06-25T08:30:39.737Z,12.47
2018-06-25T08:35:32.760Z,13.30
2018-06-25T08:40:25.899Z,14.40
2018-06-25T08:45:18.956Z,13.27
2018-06-25T08:50:12.062Z,12.47
2018-06-25T08:55:05.277Z,11.30
2018-06-25T08:59:58.383Z,10.13
2018-06-25T09:04:51.439Z,9.50
2018-06-25T09:09:44.575Z,9.73
2018-06-25T09:14:37.711Z,9.13
2018-06-25T09:19:30.728Z,9.40
2018-06-25T09:24:23.816Z,8.70
2018-06-25T09:29:16.744Z,8.43
2018-06-25T09:34:15.384Z,9.07
2018-06-25T09:39:10.389Z,9.13
2018-06-25T09:44:03.570Z,8.80
2018-06-25T09:48:56.672Z,9.07
2018-06-25T09:53:49.566Z,9.10
2018-06-25T09:58:42.479Z,8.50
2018-06-25T10:03:35.505Z,9.00
2018-06-25T10:08:28.406Z,9.00
2018-06-25T10:13:21.520Z,8.20
2018-06-25T10:18:14.530Z,7.83
2018-06-25T10:23:07.565Z,7.80
2018-06-25T10:28:00.589Z,7.37
2018-06-25T10:32:53.583Z,6.87
2018-06-25T10:37:46.625Z,7.00
2018-06-25T10:42:39.670Z,7.37
2018-06-25T10:47:32.653Z,6.60
2018-06-25T10:52:25.808Z,6.40
2018-06-25T10:57:18.897Z,6.93
2018-06-25T11:02:11.989Z,5.80
2018-06-25T11:07:05.032Z,6.70
2018-06-25T11:11:58.067Z,6.00
2018-06-25T11:16:51.433Z,6.27
2018-06-25T11:21:44.460Z,5.60
2018-06-25T11:26:37.764Z,5.37
2018-06-25T11:31:30.801Z,4.90
2018-06-25T11:36:23.742Z,5.10
2018-06-25T11:41:16.798Z,5.23
2018-06-25T11:46:09.801Z,4.87
2018-06-25T11:51:02.829Z,5.40
2018-06-25T11:55:55.864Z,5.03
2018-06-25T12:00:48.916Z,4.27
2018-06-25T12:05:41.960Z,4.77
2018-06-25T12:10:35.073Z,4.70
2018-06-25T12:15:28.095Z,4.37
2018-06-25T12:20:21.183Z,4.53
2018-06-25T12:25:14.460Z,4.10
2018-06-25T12:30:07.704Z,4.67
2018-06-25T12:35:01.559Z,4.43
2018-06-25T12:39:54.811Z,4.20
2018-06-25T12:44:47.804Z,4.50
2018-06-25T12:49:40.953Z,4.83
2018-06-25T12:54:34.604Z,4.40
2018-06-25T12:59:27.706Z,3.90
2018-06-25T13:04:21.168Z,4.07
2018-06-25T13:09:14.346Z,4.50
2018-06-25T13:14:08.125Z,3.87
2018-06-25T13:19:01.391Z,4.00
2018-06-25T13:23:54.394Z,4.60
2018-06-25T13:28:47.399Z,4.23
2018-06-25T13:33:40.577Z,3.70
2018-06-25T13:38:33.629Z,4.00
2018-06-25T13:43:26.725Z,3.83
2018-06-25T13:48:19.883Z,4.50
2018-06-25T13:53:13.041Z,4.20
2018-06-25T13:58:06.260Z,4.20
2018-06-25T14:02:59.313Z,3.70
2018-06-25T14:07:52.639Z,3.70
2018-06-25T14:12:45.637Z,4.20
2018-06-25T14:17:38.803Z,4.17
2018-06-25T14:22:31.838Z,4.50
2018-06-25T14:27:24.804Z,3.67
2018-06-25T14:32:23.441Z,4.10
2018-06-25T14:37:16.411Z,3.57
2018-06-25T14:42:09.401Z,3.50
2018-06-25T14:47:02.383Z,4.30
2018-06-25T14:51:55.350Z,4.00
2018-06-25T14:56:48.347Z,4.30
2018-06-25T15:01:41.376Z,3.97
2018-06-25T15:06:34.401Z,4.10
2018-06-25T15:11:27.444Z,3.93
2018-06-25T15:16:20.544Z,3.70
2018-06-25T15:21:13.604Z,4.70
2018-06-25T15:26:06.757Z,4.67
2018-06-25T15:30:59.903Z,4.33
2018-06-25T15:35:53.022Z,5.33
2018-06-25T15:40:46.094Z,5.20
2018-06-25T15:45:39.137Z,5.87
2018-06-25T15:50:32.157Z,5.17
2018-06-25T15:55:25.347Z,5.60
2018-06-25T16:00:18.349Z,5.70
2018-06-25T16:05:11.404Z,5.43
2018-06-25T16:10:04.632Z,5.67
2018-06-25T16:14:57.589Z,4.60
2018-06-25T16:19:50.737Z,4.30
2018-06-25T16:24:43.734Z,3.60
2018-06-25T16:29:36.871Z,3.50
2018-06-25T16:34:30.077Z,3.70
2018-06-25T16:39:23.173Z,3.37
2018-06-25T16:44:16.143Z,3.30
2018-06-25T16:49:09.172Z,3.20
2018-06-25T16:54:02.283Z,3.50
2018-06-25T16:58:55.284Z,3.87
2018-06-25T17:03:48.508Z,3.87
2018-06-25T17:08:41.596Z,3.43
2018-06-25T17:13:34.669Z,3.17
2018-06-25T17:18:27.743Z,3.10
2018-06-25T17:23:20.862Z,3.57
2018-06-25T17:28:13.936Z,3.77
2018-06-25T17:33:06.930Z,3.23
2018-06-25T17:38:00.130Z,3.63
2018-06-25T17:42:53.260Z,4.10
2018-06-25T17:47:46.306Z,4.00
2018-06-25T17:52:39.483Z,4.60
2018-06-25T17:57:32.870Z,4.80
2018-06-25T18:02:26.013Z,4.97
2018-06-25T18:07:19.074Z,4.17
2018-06-25T18:12:12.182Z,4.30
2018-06-25T18:17:05.256Z,4.40
2018-06-25T18:21:58.664Z,5.27
2018-06-25T18:26:51.790Z,6.00
2018-06-25T18:31:45.110Z,6.27
2018-06-25T18:36:38.111Z,6.90
2018-06-25T18:41:31.063Z,7.47
2018-06-25T18:46:24.431Z,7.23
2018-06-25T18:51:17.537Z,8.17
2018-06-25T18:56:10.851Z,7.33
2018-06-25T19:01:03.801Z,7.13
2018-06-25T19:05:56.990Z,7.57
2018-06-25T19:10:50.929Z,7.50
2018-06-25T19:15:44.169Z,7.60
2018-06-25T19:20:37.485Z,7.70
2018-06-25T19:25:30.951Z,7.83
2018-06-25T19:30:24.095Z,7.63
2018-06-25T19:35:17.270Z,8.30
2018-06-25T19:40:10.388Z,9.17
2018-06-25T19:45:03.949Z,8.63
2018-06-25T19:49:57.115Z,9.33
2018-06-25T19:54:50.243Z,8.83
2018-06-25T19:59:43.485Z,8.50
2018-06-25T20:04:36.473Z,8.83
2018-06-25T20:09:29.520Z,9.13
2018-06-25T20:14:22.549Z,9.73
2018-06-25T20:19:15.875Z,9.87
2018-06-25T20:24:09.167Z,10.20
2018-06-25T20:29:02.233Z,10.40
2018-06-25T20:33:55.432Z,10.40
2018-06-25T20:38:48.410Z,11.40
2018-06-25T20:43:41.431Z,10.77
2018-06-25T20:48:34.584Z,10.83
2018-06-25T20:53:27.580Z,11.30
2018-06-25T20:58:20.590Z,10.77
2018-06-25T21:03:13.568Z,11.23
2018-06-25T21:08:06.625Z,10.53
2018-06-25T21:12:59.727Z,10.70
2018-06-25T21:17:52.802Z,10.97
2018-06-25T21:22:45.877Z,11.10
2018-06-25T21:27:38.865Z,12.10
2018-06-25T21:32:32.021Z,10.47
2018-06-25T21:37:25.057Z,11.97
2018-06-25T21:42:18.026Z,12.70
2018-06-25T21:47:11.296Z,12.63
2018-06-25T21:52:04.381Z,12.73
2018-06-25T21:56:57.358Z,14.10
2018-06-25T22:01:52.485Z,13.07
2018-06-25T22:06:45.409Z,12.30
2018-06-25T22:11:38.421Z,13.13
2018-06-25T22:16:31.526Z,13.33
2018-06-25T22:21:25.324Z,12.50
2018-06-25T22:26:18.358Z,13.23
2018-06-25T22:31:11.393Z,12.80
2018-06-25T22:36:04.524Z,13.67
2018-06-25T22:40:57.604Z,13.10
2018-06-25T22:45:51.022Z,13.43
2018-06-25T22:50:44.021Z,13.30
2018-06-25T22:55:37.042Z,12.97
2018-06-25T23:00:30.438Z,12.07
2018-06-25T23:05:23.552Z,12.30
2018-06-25T23:10:16.554Z,12.73
2018-06-25T23:15:09.627Z,13.17
2018-06-25T23:20:02.749Z,12.87
2018-06-25T23:24:55.831Z,12.57
2018-06-25T23:29:48.856Z,13.07
2018-06-25T23:34:41.872Z,12.70
2018-06-25T23:39:34.911Z,13.33
2018-06-25T23:44:27.876Z,12.53
2018-06-25T23:49:20.982Z,13.20
2018-06-25T23:54:13.947Z,12.17
2018-06-25T23:59:07.022Z,12.73
